LIPE/BLQ METAR and TAF weather

Enter ICAO airport designator
Station Type Date Time Source
LIPE METAR 2021/05/14 13:50 UTC NOAA

LIPE 141350Z 30008KT 270V330 9999 BKN070 20/10 Q1008


Station Type Date Time Source
LIPE Decoded METAR 2021/05/14 13:50 UTC NOAA

Bologna / Borgo Panigale, Italy (LIPE) 44-32N 011-18E 49M
May 14, 2021 - 09:50 AM EDT / 2021.05.14 1350 UTC
Wind: from the WNW (300 degrees) at 9 MPH (8 KT) (direction variable):0
Visibility: greater than 7 mile(s):0
Sky conditions: mostly cloudy
Temperature: 68 F (20 C)
Dew Point: 50 F (10 C)
Relative Humidity: 52%
Pressure (altimeter): 29.77 in. Hg (1008 hPa)
ob: LIPE 141350Z 30008KT 270V330 9999 BKN070 20/10 Q1008
cycle: 14

Station Type Date Time Source
LIPE TAF 2021/05/14 12:21 UTC NOAA

TAF LIPE 141100Z 1412/1512 21012KT 9999 SCT030
TEMPO 1412/1421 4000 TSRA BKN014
BECMG 1417/1419 VRB05KT

Example: see airport list